Glenariff, United Kingdom
Current Conditions -  °F | °C
As of 4:20 PM on Saturday 25 Oct 2014 (Local Time) from EGAA Reporting Station
Broken Clouds Broken Clouds  
Wind Chill: 11°   Ceiling: 2400
Heat Index: 11°   Visibility: 6mi
Dew Point:   Wind: 16mph
Humidity: 88%   Direction: 230°SW
Pressure: 29.77"   Gusts: NA
Location:  55.05°N, 6.07°W
Report Text: EGAA 251520Z 23014KT 9999 FEW018 BKN024 11/09 Q1008 RERA
Loading
Personal Weather Stations






























Interactive Weather Map
Tropical Storm Tracking
New forecast layout! Learn more

10-Day Weather Forecast

Advertisements
Track Severe Weather on mobile